createdAt,value
2023-05-03T00:01:39.706Z,1.20
2023-05-03T00:04:08.705Z,1.40
2023-05-03T00:06:37.119Z,1.40
2023-05-03T00:09:05.439Z,1.30
2023-05-03T00:11:34.454Z,1.20
2023-05-03T00:14:02.817Z,1.50
2023-05-03T00:16:31.161Z,1.40
2023-05-03T00:19:00.407Z,1.30
2023-05-03T00:21:28.577Z,1.70
2023-05-03T00:23:56.966Z,1.90
2023-05-03T00:26:26.680Z,1.50
2023-05-03T00:28:54.969Z,1.70
2023-05-03T00:31:23.434Z,2.20
2023-05-03T00:33:52.145Z,1.20
2023-05-03T00:36:20.747Z,1.60
2023-05-03T00:38:48.891Z,1.60
2023-05-03T00:41:17.402Z,1.50
2023-05-03T00:43:45.683Z,1.40
2023-05-03T00:46:17.384Z,1.60
2023-05-03T00:48:49.533Z,1.50
2023-05-03T00:51:21.902Z,1.30
2023-05-03T00:53:51.703Z,1.40
2023-05-03T00:56:23.888Z,1.50
2023-05-03T00:58:52.747Z,1.80
2023-05-03T01:01:21.606Z,1.60
2023-05-03T01:03:50.903Z,1.50
2023-05-03T01:06:37.329Z,1.50
2023-05-03T01:09:21.837Z,2.30
2023-05-03T01:12:05.256Z,1.70
2023-05-03T01:14:46.855Z,1.50
2023-05-03T01:17:16.168Z,2.80
2023-05-03T01:19:49.238Z,1.60
2023-05-03T01:22:24.991Z,2.40
2023-05-03T01:25:10.601Z,1.90
2023-05-03T01:27:41.698Z,1.80
2023-05-03T01:30:12.872Z,2.20
2023-05-03T01:33:26.026Z,1.90
2023-05-03T01:36:02.536Z,2.10
2023-05-03T01:38:35.835Z,2.00
2023-05-03T01:41:11.906Z,2.40
2023-05-03T01:43:40.993Z,2.30
2023-05-03T01:46:09.543Z,2.40
2023-05-03T01:48:38.270Z,3.10
2023-05-03T01:51:06.892Z,2.80
2023-05-03T01:53:35.345Z,1.90
2023-05-03T01:56:03.735Z,1.90
2023-05-03T01:58:32.424Z,2.00
2023-05-03T02:01:00.939Z,1.90
2023-05-03T02:03:30.525Z,2.90
2023-05-03T02:05:59.008Z,2.80
2023-05-03T02:08:27.822Z,2.70
2023-05-03T02:10:56.273Z,2.60
2023-05-03T02:13:24.573Z,2.60
2023-05-03T02:15:53.056Z,2.40
2023-05-03T02:18:22.572Z,2.50
2023-05-03T02:20:50.807Z,2.00
2023-05-03T02:23:24.614Z,2.40
2023-05-03T02:25:55.533Z,1.90
2023-05-03T02:28:23.781Z,2.50
2023-05-03T02:30:52.415Z,2.40
2023-05-03T02:33:20.753Z,1.90
2023-05-03T02:35:49.158Z,3.70
2023-05-03T02:38:18.136Z,2.30
2023-05-03T02:40:46.314Z,2.20
2023-05-03T02:43:14.493Z,2.70
2023-05-03T02:45:44.284Z,3.10
2023-05-03T02:48:13.140Z,3.70
2023-05-03T02:50:42.616Z,3.10
2023-05-03T02:53:11.823Z,3.00
2023-05-03T02:55:41.532Z,2.60
2023-05-03T02:58:10.430Z,2.60
2023-05-03T03:00:39.022Z,3.40
2023-05-03T03:03:07.660Z,2.40
2023-05-03T03:05:36.196Z,2.70
2023-05-03T03:08:05.281Z,2.10
2023-05-03T03:10:33.692Z,2.60
2023-05-03T03:13:02.396Z,2.70
2023-05-03T03:15:34.230Z,3.20
2023-05-03T03:18:03.217Z,2.50
2023-05-03T03:20:31.829Z,2.20
2023-05-03T03:23:03.192Z,2.30
2023-05-03T03:25:31.873Z,2.70
2023-05-03T03:28:00.969Z,2.40
2023-05-03T03:30:30.591Z,3.70
2023-05-03T03:33:06.686Z,3.20
2023-05-03T03:35:38.890Z,3.10
2023-05-03T03:38:07.926Z,3.20
2023-05-03T03:40:37.643Z,3.00
2023-05-03T03:43:06.960Z,2.30
2023-05-03T03:45:36.869Z,2.50
2023-05-03T03:48:07.036Z,2.20
2023-05-03T03:50:35.572Z,2.50
2023-05-03T03:53:04.872Z,3.40
2023-05-03T03:55:33.555Z,2.80
2023-05-03T03:58:02.157Z,4.50
2023-05-03T04:00:31.060Z,2.70
2023-05-03T04:03:07.876Z,2.90
2023-05-03T04:05:36.649Z,3.20
2023-05-03T04:08:06.376Z,2.60
2023-05-03T04:10:35.745Z,2.90
2023-05-03T04:13:04.226Z,5.00
2023-05-03T04:15:32.452Z,4.10
2023-05-03T04:18:01.991Z,4.00
2023-05-03T04:20:30.306Z,5.80
2023-05-03T04:23:00.467Z,5.10
2023-05-03T04:25:33.578Z,5.90
2023-05-03T04:28:07.033Z,4.80
2023-05-03T04:30:36.748Z,5.30
2023-05-03T04:33:05.301Z,3.10
2023-05-03T04:35:36.358Z,2.90
2023-05-03T04:38:09.987Z,2.40
2023-05-03T04:40:38.495Z,2.60
2023-05-03T04:43:09.398Z,2.70
2023-05-03T04:45:41.205Z,2.50
2023-05-03T04:48:11.807Z,2.90
2023-05-03T04:50:40.288Z,2.90
2023-05-03T04:53:09.903Z,2.70
2023-05-03T04:55:40.720Z,3.60
2023-05-03T04:58:09.415Z,3.40
2023-05-03T05:00:38.195Z,3.30
2023-05-03T05:03:11.174Z,2.90
2023-05-03T05:05:40.002Z,3.40
2023-05-03T05:08:09.421Z,2.90
2023-05-03T05:10:44.145Z,3.20
2023-05-03T05:13:16.215Z,3.50
2023-05-03T05:15:45.115Z,3.30
2023-05-03T05:18:14.430Z,3.40
2023-05-03T05:20:43.408Z,3.30
2023-05-03T05:23:12.824Z,3.20
2023-05-03T05:25:43.359Z,3.40
2023-05-03T05:28:11.716Z,3.40
2023-05-03T05:30:41.660Z,2.90
2023-05-03T05:33:10.717Z,2.80
2023-05-03T05:35:39.146Z,2.20
2023-05-03T05:38:07.745Z,3.00
2023-05-03T05:40:36.688Z,3.00
2023-05-03T05:43:05.762Z,2.70
2023-05-03T05:45:36.228Z,2.50
2023-05-03T05:48:06.087Z,2.80
2023-05-03T05:50:34.781Z,2.70
2023-05-03T05:53:09.188Z,2.80
2023-05-03T05:55:39.540Z,2.50
2023-05-03T05:58:17.528Z,3.20
2023-05-03T06:00:52.260Z,2.70
2023-05-03T06:03:20.595Z,2.70
2023-05-03T06:05:51.089Z,3.00
2023-05-03T06:08:19.264Z,2.70
2023-05-03T06:10:47.809Z,2.60
2023-05-03T06:13:16.241Z,3.80
2023-05-03T06:15:46.261Z,2.10
2023-05-03T06:18:14.811Z,2.50
2023-05-03T06:20:43.224Z,3.00
2023-05-03T06:23:11.818Z,2.70
2023-05-03T06:25:39.924Z,2.50
2023-05-03T06:28:08.991Z,2.80
2023-05-03T06:30:38.058Z,2.80
2023-05-03T06:33:14.226Z,2.50
2023-05-03T06:35:44.177Z,2.40
2023-05-03T06:38:13.285Z,2.30
2023-05-03T06:40:41.762Z,2.10
2023-05-03T06:43:09.856Z,1.80
2023-05-03T06:46:02.524Z,2.90
2023-05-03T06:48:31.090Z,2.10
2023-05-03T06:50:59.969Z,2.40
2023-05-03T06:53:29.118Z,1.90
2023-05-03T06:55:57.748Z,1.80
2023-05-03T06:58:26.444Z,1.80
2023-05-03T07:00:54.731Z,1.80
2023-05-03T07:03:24.267Z,2.40
2023-05-03T07:05:52.731Z,2.20
2023-05-03T07:08:21.019Z,1.90
2023-05-03T07:10:49.283Z,1.70
2023-05-03T07:13:17.482Z,1.70
2023-05-03T07:15:46.236Z,2.00
2023-05-03T07:18:15.031Z,1.80
2023-05-03T07:20:43.442Z,1.40
2023-05-03T07:23:11.643Z,1.40
2023-05-03T07:25:39.900Z,1.40
2023-05-03T07:28:08.500Z,1.90
2023-05-03T07:30:36.797Z,1.80
2023-05-03T07:33:05.560Z,1.70
2023-05-03T07:35:33.961Z,1.40
2023-05-03T07:38:03.056Z,1.40
2023-05-03T07:40:33.476Z,1.80
2023-05-03T07:43:01.869Z,1.10
2023-05-03T07:45:30.377Z,1.80
2023-05-03T07:47:58.815Z,1.60
2023-05-03T07:50:27.389Z,1.40
2023-05-03T07:52:56.696Z,1.50
2023-05-03T07:55:29.461Z,1.90
2023-05-03T07:57:59.602Z,1.40
2023-05-03T08:00:28.360Z,1.50
2023-05-03T08:02:57.054Z,1.30
2023-05-03T08:05:25.507Z,1.70
2023-05-03T08:07:53.881Z,1.50
2023-05-03T08:10:22.199Z,1.30
2023-05-03T08:12:51.424Z,1.60
2023-05-03T08:15:19.992Z,1.20
2023-05-03T08:17:48.841Z,1.60
2023-05-03T08:20:17.063Z,1.40
2023-05-03T08:22:46.738Z,1.90
2023-05-03T08:25:17.938Z,1.60
2023-05-03T08:27:46.711Z,1.70
2023-05-03T08:30:15.798Z,1.80
2023-05-03T08:32:44.129Z,1.20
2023-05-03T08:35:14.120Z,1.60
2023-05-03T08:37:43.461Z,1.30
2023-05-03T08:40:15.803Z,1.50
2023-05-03T08:42:46.501Z,1.40
2023-05-03T08:45:16.575Z,1.60
2023-05-03T08:47:45.769Z,1.60
2023-05-03T08:50:15.874Z,1.60
2023-05-03T08:52:44.786Z,1.30
2023-05-03T08:55:14.181Z,1.50
2023-05-03T08:57:42.849Z,1.60
2023-05-03T09:00:13.190Z,1.10
2023-05-03T09:02:42.225Z,1.40
2023-05-03T09:05:16.661Z,1.60
2023-05-03T09:08:06.187Z,1.50
2023-05-03T09:10:38.276Z,2.60
2023-05-03T09:13:07.902Z,1.90
2023-05-03T09:15:37.415Z,2.50
2023-05-03T09:18:19.747Z,1.50
2023-05-03T09:20:52.850Z,2.50
2023-05-03T09:25:56.151Z,1.40
2023-05-03T09:28:25.746Z,1.80
2023-05-03T09:31:11.431Z,2.00
2023-05-03T09:33:41.514Z,1.90
2023-05-03T09:36:11.228Z,2.20
2023-05-03T09:38:39.720Z,1.80
2023-05-03T09:41:28.261Z,1.30
2023-05-03T09:44:02.812Z,1.50
2023-05-03T09:46:33.469Z,1.80
2023-05-03T09:49:02.315Z,1.30
2023-05-03T09:51:34.177Z,1.40
2023-05-03T09:54:03.765Z,1.90
2023-05-03T09:56:32.472Z,1.10
2023-05-03T09:59:01.275Z,1.20
2023-05-03T10:01:29.698Z,1.30
2023-05-03T10:04:00.443Z,1.20
2023-05-03T10:06:38.530Z,1.20
2023-05-03T10:09:16.739Z,1.20
2023-05-03T10:11:49.798Z,1.30
2023-05-03T10:16:50.518Z,2.00
2023-05-03T10:19:29.593Z,2.00
2023-05-03T10:22:07.867Z,1.80
2023-05-03T10:24:38.372Z,1.20
2023-05-03T10:27:12.348Z,1.60
2023-05-03T10:29:49.303Z,1.80
2023-05-03T10:32:35.795Z,1.40
2023-05-03T10:35:09.420Z,1.60
2023-05-03T10:37:40.475Z,1.50
2023-05-03T10:40:14.123Z,1.70
2023-05-03T10:42:49.989Z,1.40
2023-05-03T10:45:26.929Z,1.10
2023-05-03T10:48:16.692Z,1.50
2023-05-03T10:50:45.366Z,1.70
2023-05-03T10:53:35.480Z,1.50
2023-05-03T10:56:09.261Z,1.10
2023-05-03T10:58:42.982Z,1.50
2023-05-03T11:01:13.554Z,1.20
2023-05-03T11:04:01.526Z,1.80
2023-05-03T11:06:34.986Z,1.20
2023-05-03T11:09:08.018Z,1.00
2023-05-03T11:11:39.525Z,1.30
2023-05-03T11:14:09.570Z,1.20
2023-05-03T11:16:47.818Z,1.00
2023-05-03T11:19:17.386Z,1.00
2023-05-03T11:21:46.521Z,1.20
2023-05-03T11:24:16.558Z,1.10
2023-05-03T11:26:44.923Z,1.30
2023-05-03T11:29:14.574Z,1.20
2023-05-03T11:31:43.775Z,1.50
2023-05-03T11:34:13.383Z,0.90
2023-05-03T11:36:42.982Z,1.30
2023-05-03T11:39:14.709Z,1.10
2023-05-03T11:41:42.911Z,1.20
2023-05-03T11:44:17.307Z,1.50
2023-05-03T11:46:48.209Z,1.10
2023-05-03T11:49:19.306Z,1.30
2023-05-03T11:51:51.680Z,1.10
2023-05-03T11:54:26.867Z,1.40
2023-05-03T11:56:59.214Z,1.70
2023-05-03T11:59:39.069Z,1.30
2023-05-03T12:02:10.210Z,1.40
2023-05-03T12:04:43.724Z,1.10
2023-05-03T12:07:15.250Z,1.30
2023-05-03T12:09:55.299Z,1.00
2023-05-03T12:15:07.706Z,1.80
2023-05-03T12:17:39.642Z,1.80
2023-05-03T12:22:58.077Z,1.50
2023-05-03T12:25:29.139Z,1.50
2023-05-03T12:28:17.758Z,1.10
2023-05-03T12:30:48.823Z,0.90
2023-05-03T12:33:21.972Z,1.00
2023-05-03T12:35:54.566Z,1.10
2023-05-03T12:38:29.128Z,1.00
2023-05-03T12:41:00.069Z,1.20
2023-05-03T12:43:31.473Z,1.40
2023-05-03T12:46:29.009Z,1.70
2023-05-03T12:48:54.142Z,1.10
2023-05-03T12:51:26.094Z,1.20
2023-05-03T12:53:55.640Z,1.80
2023-05-03T12:56:25.554Z,1.50
2023-05-03T13:04:17.013Z,1.30
2023-05-03T13:06:47.038Z,1.40
2023-05-03T13:12:06.406Z,1.20
2023-05-03T13:14:34.908Z,1.20
2023-05-03T13:17:03.401Z,1.10
2023-05-03T13:19:31.798Z,1.20
2023-05-03T13:22:00.028Z,1.40
2023-05-03T13:24:28.449Z,1.70
2023-05-03T13:26:56.827Z,0.90
2023-05-03T13:29:25.230Z,1.40
2023-05-03T13:31:53.827Z,1.00
2023-05-03T13:34:22.101Z,1.60
2023-05-03T13:36:50.985Z,1.70
2023-05-03T13:39:19.362Z,1.50
2023-05-03T13:41:48.185Z,1.20
2023-05-03T13:44:16.845Z,1.50
2023-05-03T13:46:46.101Z,1.30
2023-05-03T13:49:14.418Z,2.20
2023-05-03T13:51:42.885Z,1.10
2023-05-03T13:54:11.307Z,1.10
2023-05-03T13:56:41.335Z,1.10
2023-05-03T13:59:16.568Z,1.40
2023-05-03T14:01:44.700Z,1.90
2023-05-03T14:04:13.029Z,1.20
2023-05-03T14:06:42.031Z,1.20
2023-05-03T14:09:11.057Z,1.00
2023-05-03T14:11:40.662Z,1.20
2023-05-03T14:14:08.951Z,1.20
2023-05-03T14:16:41.650Z,1.30
2023-05-03T14:19:11.697Z,1.50
2023-05-03T14:21:43.044Z,1.80
2023-05-03T14:24:12.600Z,1.40
2023-05-03T14:26:41.391Z,1.40
2023-05-03T14:29:09.699Z,1.60
2023-05-03T14:31:38.336Z,1.50
2023-05-03T14:34:07.211Z,1.70
2023-05-03T14:36:38.916Z,1.70
2023-05-03T14:39:10.869Z,1.60
2023-05-03T14:41:39.274Z,2.00
2023-05-03T14:44:07.724Z,1.40
2023-05-03T14:46:36.288Z,1.90
2023-05-03T14:49:05.368Z,1.80
2023-05-03T14:51:33.963Z,2.00
2023-05-03T14:54:02.232Z,1.70
2023-05-03T14:56:32.640Z,2.20
2023-05-03T14:59:01.880Z,2.00
2023-05-03T15:01:30.162Z,2.90
2023-05-03T15:03:58.424Z,1.90
2023-05-03T15:06:31.420Z,2.00
2023-05-03T15:08:59.785Z,1.50
2023-05-03T15:11:28.496Z,1.30
2023-05-03T15:13:57.008Z,1.40
2023-05-03T15:16:25.573Z,1.30
2023-05-03T15:18:54.044Z,1.60
2023-05-03T15:21:22.636Z,1.50
2023-05-03T15:23:52.031Z,1.70
2023-05-03T15:26:22.458Z,2.40
2023-05-03T15:28:52.182Z,1.50
2023-05-03T15:31:20.817Z,1.10
2023-05-03T15:33:49.360Z,1.30
2023-05-03T15:36:17.848Z,1.50
2023-05-03T15:38:47.049Z,1.90
2023-05-03T15:41:15.548Z,1.80
2023-05-03T15:43:46.247Z,1.90
2023-05-03T15:46:14.917Z,1.50
2023-05-03T15:48:43.452Z,1.40
2023-05-03T15:51:11.532Z,1.60
2023-05-03T15:53:41.258Z,1.40
2023-05-03T15:56:09.529Z,1.30
2023-05-03T15:58:38.550Z,1.70
2023-05-03T16:01:06.775Z,1.70
2023-05-03T16:03:35.108Z,2.30
2023-05-03T16:06:08.735Z,1.50
2023-05-03T16:08:37.291Z,1.70
2023-05-03T16:11:05.670Z,1.70
2023-05-03T16:13:33.912Z,1.60
2023-05-03T16:16:03.541Z,1.70
2023-05-03T16:18:32.878Z,1.90
2023-05-03T16:21:02.337Z,1.70
2023-05-03T16:23:30.667Z,2.30
2023-05-03T16:25:59.161Z,1.80
2023-05-03T16:28:27.335Z,2.40
2023-05-03T16:30:56.027Z,1.70
2023-05-03T16:33:24.724Z,2.00
2023-05-03T16:35:53.204Z,2.00
2023-05-03T16:38:21.798Z,2.00
2023-05-03T16:40:50.172Z,2.00
2023-05-03T16:43:18.551Z,1.70
2023-05-03T16:46:03.995Z,3.20
2023-05-03T16:48:33.605Z,2.10
2023-05-03T16:51:02.535Z,2.40
2023-05-03T16:53:31.604Z,2.40
2023-05-03T16:56:01.172Z,2.00
2023-05-03T16:58:29.559Z,1.60
2023-05-03T17:00:58.116Z,1.70
2023-05-03T17:03:26.738Z,2.10
2023-05-03T17:05:56.142Z,3.10
2023-05-03T17:08:24.517Z,2.70
2023-05-03T17:10:54.734Z,1.70
2023-05-03T17:13:23.259Z,1.80
2023-05-03T17:15:51.824Z,1.80
2023-05-03T17:18:20.196Z,1.80
2023-05-03T17:20:48.687Z,3.40
2023-05-03T17:23:18.718Z,2.10
2023-05-03T17:25:48.736Z,2.00
2023-05-03T17:28:16.897Z,8.20
2023-05-03T17:30:45.598Z,2.80
2023-05-03T17:33:14.378Z,2.10
2023-05-03T17:35:44.207Z,2.10
2023-05-03T17:38:12.598Z,2.30
2023-05-03T17:40:43.357Z,2.50
2023-05-03T17:43:12.483Z,2.10
2023-05-03T17:45:44.684Z,2.30
2023-05-03T17:48:13.392Z,2.20
2023-05-03T17:50:43.320Z,2.30
2023-05-03T17:53:11.796Z,2.10
2023-05-03T17:55:40.410Z,2.20
2023-05-03T17:58:09.695Z,1.90
2023-05-03T18:00:39.525Z,2.30
2023-05-03T18:03:08.338Z,2.30
2023-05-03T18:05:37.436Z,2.10
2023-05-03T18:08:06.391Z,2.50
2023-05-03T18:10:34.991Z,2.20
2023-05-03T18:13:04.721Z,2.00
2023-05-03T18:15:33.198Z,2.40
2023-05-03T18:18:02.691Z,2.60
2023-05-03T18:20:31.293Z,2.50
2023-05-03T18:23:02.764Z,2.10
2023-05-03T18:25:31.638Z,2.50
2023-05-03T18:28:00.705Z,2.20
2023-05-03T18:30:29.498Z,2.50
2023-05-03T18:32:57.943Z,2.50
2023-05-03T18:35:26.450Z,1.90
2023-05-03T18:37:55.204Z,2.10
2023-05-03T18:40:25.021Z,1.80
2023-05-03T18:42:53.510Z,1.60
2023-05-03T18:45:22.112Z,1.80
2023-05-03T18:47:51.266Z,1.70
2023-05-03T18:50:20.104Z,2.00
2023-05-03T18:52:50.769Z,2.00
2023-05-03T18:55:19.233Z,2.00
2023-05-03T18:57:47.754Z,2.40
2023-05-03T19:00:19.888Z,2.00
2023-05-03T19:02:48.465Z,1.90
2023-05-03T19:05:16.989Z,1.90
2023-05-03T19:07:48.331Z,2.50
2023-05-03T19:10:20.071Z,2.50
2023-05-03T19:12:48.608Z,2.20
2023-05-03T19:15:16.952Z,2.00
2023-05-03T19:17:46.883Z,1.90
2023-05-03T19:20:15.734Z,2.10
2023-05-03T19:22:43.946Z,2.20
2023-05-03T19:25:12.343Z,2.00
2023-05-03T19:27:40.768Z,1.80
2023-05-03T19:30:09.849Z,2.40
2023-05-03T19:32:39.494Z,2.10
2023-05-03T19:35:08.930Z,1.90
2023-05-03T19:37:37.774Z,1.60
2023-05-03T19:40:07.358Z,1.40
2023-05-03T19:42:35.732Z,2.00
2023-05-03T19:45:04.918Z,1.70
2023-05-03T19:47:33.349Z,1.80
2023-05-03T19:50:02.248Z,1.80
2023-05-03T19:52:31.725Z,1.80
2023-05-03T19:55:00.130Z,1.60
2023-05-03T19:57:28.480Z,2.00
2023-05-03T19:59:56.665Z,1.50
2023-05-03T20:02:25.261Z,1.40
2023-05-03T20:04:53.634Z,1.40
2023-05-03T20:07:21.916Z,2.20
2023-05-03T20:09:50.416Z,2.60
2023-05-03T20:12:18.940Z,1.70
2023-05-03T20:14:47.176Z,1.80
2023-05-03T20:17:16.463Z,1.50
2023-05-03T20:19:44.633Z,1.80
2023-05-03T20:22:12.944Z,1.70
2023-05-03T20:24:41.019Z,2.20
2023-05-03T20:27:09.609Z,1.50
2023-05-03T20:29:38.196Z,1.70
2023-05-03T20:32:06.773Z,1.60
2023-05-03T20:34:36.001Z,1.70
2023-05-03T20:37:04.903Z,1.60
2023-05-03T20:39:35.431Z,1.70
2023-05-03T20:42:03.805Z,1.80
2023-05-03T20:44:31.888Z,1.90
2023-05-03T20:47:00.674Z,1.70
2023-05-03T20:49:30.505Z,2.00
2023-05-03T20:51:59.289Z,2.20
2023-05-03T20:54:27.568Z,2.00
2023-05-03T20:56:56.332Z,1.90
2023-05-03T20:59:24.904Z,2.30
2023-05-03T21:01:53.537Z,1.80
2023-05-03T21:04:23.047Z,2.00
2023-05-03T21:06:51.437Z,2.00
2023-05-03T21:09:20.227Z,1.80
2023-05-03T21:11:48.663Z,1.60
2023-05-03T21:14:18.728Z,1.80
2023-05-03T21:16:46.941Z,1.70
2023-05-03T21:19:15.413Z,1.40
2023-05-03T21:21:43.619Z,2.10
2023-05-03T21:24:12.186Z,1.70
2023-05-03T21:26:40.472Z,1.90
2023-05-03T21:29:09.324Z,1.60
2023-05-03T21:31:39.346Z,1.70
2023-05-03T21:34:07.857Z,1.90
2023-05-03T21:36:36.240Z,1.50
2023-05-03T21:39:05.259Z,2.20
2023-05-03T21:41:33.536Z,2.00
2023-05-03T21:44:01.810Z,2.00
2023-05-03T21:46:30.333Z,2.60
2023-05-03T21:48:58.888Z,1.60
2023-05-03T21:51:27.501Z,1.80
2023-05-03T21:53:55.955Z,1.30
2023-05-03T21:56:24.644Z,2.10
2023-05-03T21:58:52.933Z,1.80
2023-05-03T22:01:21.979Z,1.70
2023-05-03T22:03:50.536Z,1.80
2023-05-03T22:06:19.312Z,1.90
2023-05-03T22:08:48.002Z,1.60
2023-05-03T22:11:16.522Z,1.60
2023-05-03T22:14:03.120Z,2.00
2023-05-03T22:16:35.112Z,2.00
2023-05-03T22:19:04.486Z,2.00
2023-05-03T22:21:32.771Z,2.80
2023-05-03T22:24:01.510Z,1.90
2023-05-03T22:26:30.021Z,1.70
2023-05-03T22:28:58.210Z,1.80
2023-05-03T22:31:27.793Z,2.20
2023-05-03T22:33:56.558Z,1.80
2023-05-03T22:36:25.307Z,1.70
2023-05-03T22:38:55.480Z,1.70
2023-05-03T22:41:23.623Z,1.80
2023-05-03T22:43:51.895Z,1.40
2023-05-03T22:46:20.761Z,1.60
2023-05-03T22:48:49.178Z,1.60
2023-05-03T22:51:17.553Z,1.80
2023-05-03T22:53:45.943Z,1.70
2023-05-03T22:56:15.887Z,1.70
2023-05-03T22:58:44.660Z,1.70
2023-05-03T23:01:13.248Z,2.10
2023-05-03T23:03:41.645Z,1.60
2023-05-03T23:06:10.424Z,1.70
2023-05-03T23:08:38.907Z,1.90
2023-05-03T23:11:10.996Z,1.50
2023-05-03T23:13:39.882Z,1.90
2023-05-03T23:16:08.908Z,1.40
2023-05-03T23:18:37.255Z,1.80
2023-05-03T23:21:05.738Z,1.80
2023-05-03T23:23:35.801Z,1.60
2023-05-03T23:26:03.965Z,1.70
2023-05-03T23:28:32.922Z,1.60
2023-05-03T23:31:04.812Z,2.10
2023-05-03T23:33:33.705Z,1.40
2023-05-03T23:36:02.202Z,1.80
2023-05-03T23:38:34.157Z,1.60
2023-05-03T23:41:05.415Z,2.00
2023-05-03T23:43:33.484Z,2.00
2023-05-03T23:46:01.920Z,2.40
2023-05-03T23:48:31.695Z,1.90
2023-05-03T23:51:00.166Z,1.80
2023-05-03T23:53:28.570Z,1.50
2023-05-03T23:55:56.946Z,1.90
2023-05-03T23:58:25.532Z,1.80
